Time;durP1;ratioP1;P1;durP2;ratioP2;P2;SDS_P1;SDS_P2;PMS_P1;PMS_P2;Temp;Humidity;BMP_temperature;BMP_pressure;BME280_temperature;BME280_humidity;BME280_pressure;Samples;Min_cycle;Max_cycle;Signal;HPM_P1;HPM_P2
2023/03/05 00:00:06;;;;;;;13.45;8.98;;;5.70;91.60;;;;;;4974588;28;20141;-80
2023/03/05 00:02:31;;;;;;;13.85;8.63;;;5.70;91.60;;;;;;4979646;28;20148;-80
2023/03/05 00:04:57;;;;;;;14.48;9.05;;;5.70;91.50;;;;;;4971414;28;20452;-79
2023/03/05 00:07:23;;;;;;;12.75;8.82;;;5.60;91.50;;;;;;4976888;28;20491;-78
2023/03/05 00:09:48;;;;;;;14.27;8.48;;;5.60;91.50;;;;;;4978371;28;20034;-80
2023/03/05 00:12:15;;;;;;;13.18;8.30;;;5.60;91.60;;;;;;4974797;28;20053;-79
2023/03/05 00:14:41;;;;;;;15.02;9.05;;;5.50;91.60;;;;;;4984854;28;20037;-79
2023/03/05 00:17:07;;;;;;;13.93;9.25;;;5.40;91.70;;;;;;4976043;28;20042;-79
2023/03/05 00:19:33;;;;;;;16.10;9.77;;;5.40;91.70;;;;;;4975834;28;20035;-79
2023/03/05 00:21:58;;;;;;;14.25;8.68;;;5.30;91.70;;;;;;4970132;28;20054;-79
2023/03/05 00:24:24;;;;;;;18.13;8.95;;;5.30;91.70;;;;;;4992293;28;20031;-79
2023/03/05 00:26:50;;;;;;;13.98;8.93;;;5.30;91.70;;;;;;4972497;28;20056;-79
2023/03/05 00:29:18;;;;;;;14.07;8.93;;;5.20;91.80;;;;;;4972459;28;20069;-79
2023/03/05 00:31:44;;;;;;;13.40;9.05;;;5.20;91.90;;;;;;4973635;28;20622;-78
2023/03/05 00:34:15;;;;;;;13.95;8.63;;;5.20;91.90;;;;;;4975358;28;20041;-77
2023/03/05 00:36:50;;;;;;;13.15;8.85;;;5.10;91.90;;;;;;4978463;28;20140;-77
2023/03/05 00:39:16;;;;;;;12.65;8.25;;;5.10;91.90;;;;;;4982561;28;20387;-77
2023/03/05 00:41:43;;;;;;;13.38;8.90;;;5.20;91.80;;;;;;4978533;28;20041;-80
2023/03/05 00:44:09;;;;;;;14.02;8.98;;;5.20;91.70;;;;;;4977671;28;20157;-77
2023/03/05 00:46:35;;;;;;;13.73;8.50;;;5.10;91.60;;;;;;4978403;28;20026;-79
2023/03/05 00:49:01;;;;;;;16.67;8.82;;;5.10;91.60;;;;;;4975775;28;20418;-76
2023/03/05 00:51:27;;;;;;;12.50;7.80;;;5.10;91.60;;;;;;4977173;28;20043;-77
2023/03/05 00:53:54;;;;;;;14.60;8.20;;;5.10;91.60;;;;;;4981208;28;20027;-77
2023/03/05 00:56:22;;;;;;;13.10;7.72;;;5.10;91.60;;;;;;4981552;28;20074;-79
2023/03/05 00:58:49;;;;;;;11.98;6.80;;;5.10;91.60;;;;;;4973609;28;20100;-79
2023/03/05 01:01:16;;;;;;;14.43;7.80;;;5.00;91.50;;;;;;4974904;28;20130;-79
2023/03/05 01:03:42;;;;;;;11.75;7.85;;;5.00;91.50;;;;;;4972738;28;20073;-80
2023/03/05 01:06:11;;;;;;;13.82;7.22;;;5.00;91.50;;;;;;4975857;28;20391;-80
2023/03/05 01:08:38;;;;;;;12.13;7.40;;;5.00;91.60;;;;;;4985270;28;20018;-79
2023/03/05 01:11:05;;;;;;;12.80;7.65;;;5.00;91.60;;;;;;4982521;28;20026;-80
2023/03/05 01:13:31;;;;;;;13.55;7.88;;;5.00;91.50;;;;;;4980640;28;20030;-80
2023/03/05 01:15:56;;;;;;;11.20;7.55;;;5.00;91.50;;;;;;4999987;28;20042;-79
2023/03/05 01:18:22;;;;;;;14.52;7.85;;;5.00;91.40;;;;;;4976182;28;20033;-78
2023/03/05 01:20:48;;;;;;;15.00;8.70;;;5.00;91.40;;;;;;4973644;28;20066;-79
2023/03/05 01:23:14;;;;;;;9.57;6.40;;;5.00;91.50;;;;;;4978457;28;20030;-79
2023/03/05 01:25:40;;;;;;;12.85;7.45;;;5.10;91.50;;;;;;4979486;28;20034;-78
2023/03/05 01:28:06;;;;;;;11.25;6.70;;;5.00;91.50;;;;;;4981778;28;20030;-79
2023/03/05 01:30:32;;;;;;;12.98;7.13;;;5.00;91.50;;;;;;4979448;28;20494;-79
2023/03/05 01:32:58;;;;;;;12.75;6.57;;;5.00;91.50;;;;;;4984832;28;20368;-79
2023/03/05 01:35:24;;;;;;;12.30;7.55;;;5.00;91.60;;;;;;4986379;28;20089;-79
2023/03/05 01:37:51;;;;;;;13.20;7.22;;;5.10;91.60;;;;;;4985669;28;20034;-79
2023/03/05 01:40:23;;;;;;;11.73;7.22;;;5.00;91.40;;;;;;4987417;28;20030;-80
2023/03/05 01:42:57;;;;;;;10.65;7.10;;;5.00;91.40;;;;;;4979045;28;20070;-80
2023/03/05 01:45:22;;;;;;;10.32;7.00;;;5.00;91.40;;;;;;4981360;28;20407;-80
2023/03/05 01:47:48;;;;;;;11.20;6.05;;;5.00;91.30;;;;;;4981985;28;20046;-79
2023/03/05 01:50:19;;;;;;;11.77;6.75;;;5.00;91.20;;;;;;4984295;28;20023;-80
2023/03/05 01:53:00;;;;;;;10.52;6.60;;;5.00;91.10;;;;;;4985493;28;20039;-78
2023/03/05 01:55:28;;;;;;;12.18;7.07;;;4.90;91.00;;;;;;4984742;28;20489;-80
2023/03/05 01:58:05;;;;;;;11.68;6.63;;;4.90;90.80;;;;;;4975321;28;20031;-78
2023/03/05 02:00:38;;;;;;;13.75;7.20;;;4.90;90.80;;;;;;4977005;28;20051;-79
2023/03/05 02:03:08;;;;;;;11.88;6.85;;;4.90;90.90;;;;;;4977677;28;21106;-79
2023/03/05 02:05:36;;;;;;;13.65;7.50;;;4.90;90.90;;;;;;4976329;28;20031;-79
2023/03/05 02:08:05;;;;;;;11.32;7.03;;;4.90;91.00;;;;;;4998343;28;20452;-79
2023/03/05 02:10:35;;;;;;;14.43;8.10;;;4.90;90.90;;;;;;4999542;28;20398;-79
2023/03/05 02:13:06;;;;;;;11.65;6.93;;;4.80;91.00;;;;;;4985128;28;20087;-79
2023/03/05 02:15:33;;;;;;;13.02;7.53;;;4.90;91.10;;;;;;4986791;28;20026;-79
2023/03/05 02:18:00;;;;;;;11.73;7.95;;;4.90;91.10;;;;;;5002309;28;20075;-79
2023/03/05 02:20:28;;;;;;;16.30;7.88;;;4.90;91.10;;;;;;5005470;28;20025;-79
2023/03/05 02:22:54;;;;;;;14.80;8.35;;;4.90;91.20;;;;;;4978780;28;20039;-79
2023/03/05 02:25:26;;;;;;;14.38;8.05;;;5.00;91.10;;;;;;4983813;28;20534;-79
2023/03/05 02:28:05;;;;;;;11.02;7.38;;;4.90;91.10;;;;;;4977445;28;20050;-80
2023/03/05 02:30:31;;;;;;;13.93;7.75;;;4.90;91.10;;;;;;4979145;28;20035;-79
2023/03/05 02:32:57;;;;;;;13.23;7.80;;;4.90;91.00;;;;;;4977066;28;20073;-79
2023/03/05 02:35:23;;;;;;;15.65;8.55;;;4.80;91.10;;;;;;4987558;28;20487;-79
2023/03/05 02:37:49;;;;;;;12.30;8.13;;;4.90;91.20;;;;;;4979602;28;20053;-79
2023/03/05 02:40:15;;;;;;;14.95;8.32;;;4.80;91.10;;;;;;4980206;28;20042;-79
2023/03/05 02:42:42;;;;;;;13.05;8.02;;;4.80;91.20;;;;;;5002277;28;20041;-79
2023/03/05 02:45:09;;;;;;;12.00;7.78;;;4.80;91.20;;;;;;4995374;28;20440;-78
2023/03/05 02:47:35;;;;;;;14.90;8.07;;;4.80;91.30;;;;;;4978958;28;20048;-80
2023/03/05 02:50:01;;;;;;;17.30;8.77;;;4.80;91.30;;;;;;4979658;28;20030;-79
2023/03/05 02:52:28;;;;;;;12.18;7.82;;;4.70;91.30;;;;;;4992969;28;20735;-78
2023/03/05 02:54:54;;;;;;;14.88;7.57;;;4.80;91.30;;;;;;4995557;28;20022;-78
2023/03/05 02:57:20;;;;;;;13.30;8.05;;;4.70;91.30;;;;;;5003402;28;20476;-79
2023/03/05 02:59:46;;;;;;;13.32;8.20;;;4.70;91.20;;;;;;5000206;28;20101;-78
2023/03/05 03:02:12;;;;;;;13.98;8.43;;;4.70;91.20;;;;;;5003686;28;20200;-78
2023/03/05 03:04:38;;;;;;;14.75;7.80;;;4.70;91.20;;;;;;5000176;28;20486;-79
2023/03/05 03:07:04;;;;;;;12.75;8.20;;;4.70;91.30;;;;;;4995654;28;20053;-79
2023/03/05 03:09:30;;;;;;;13.25;8.65;;;4.70;91.30;;;;;;5001192;28;20226;-78
2023/03/05 03:11:55;;;;;;;12.77;8.45;;;4.80;91.30;;;;;;4994201;28;20046;-79
2023/03/05 03:14:21;;;;;;;14.15;8.82;;;4.80;91.30;;;;;;4991117;28;20026;-79
2023/03/05 03:16:47;;;;;;;14.13;8.55;;;4.80;91.30;;;;;;4992707;28;20061;-79
2023/03/05 03:19:13;;;;;;;14.80;9.25;;;4.80;91.30;;;;;;4996541;28;20026;-79
2023/03/05 03:21:39;;;;;;;16.92;10.70;;;4.80;91.30;;;;;;4992532;28;20111;-79
2023/03/05 03:24:05;;;;;;;14.30;9.50;;;4.80;91.30;;;;;;4993918;28;20042;-79
2023/03/05 03:26:30;;;;;;;16.90;9.77;;;4.80;91.40;;;;;;4993690;28;20044;-79
2023/03/05 03:28:57;;;;;;;17.63;10.98;;;4.80;91.40;;;;;;4989880;28;20046;-79
2023/03/05 03:31:23;;;;;;;17.90;11.88;;;4.90;91.40;;;;;;4994857;28;20509;-79
2023/03/05 03:33:49;;;;;;;19.20;12.48;;;4.90;91.40;;;;;;4995026;28;20081;-79
2023/03/05 03:36:15;;;;;;;17.75;12.48;;;4.90;91.40;;;;;;4999745;28;20030;-79
2023/03/05 03:38:41;;;;;;;21.27;13.13;;;4.90;91.50;;;;;;4995759;28;20014;-78
2023/03/05 03:41:07;;;;;;;18.17;12.20;;;4.90;91.50;;;;;;4995581;28;20434;-79
2023/03/05 03:43:34;;;;;;;17.50;12.43;;;5.00;91.50;;;;;;5001141;28;20316;-79
2023/03/05 03:46:02;;;;;;;18.00;12.50;;;5.00;91.50;;;;;;4999643;28;20034;-78
2023/03/05 03:48:27;;;;;;;18.88;12.57;;;5.00;91.50;;;;;;5003348;28;20034;-78
2023/03/05 03:50:53;;;;;;;16.30;11.70;;;4.90;91.50;;;;;;4994133;28;20117;-79
2023/03/05 03:53:18;;;;;;;19.83;12.35;;;5.00;91.50;;;;;;4993324;28;20030;-78
2023/03/05 03:55:45;;;;;;;17.65;12.65;;;5.00;91.50;;;;;;5001094;28;20053;-78
2023/03/05 03:58:11;;;;;;;17.83;12.55;;;5.00;91.50;;;;;;4993705;28;20097;-78
2023/03/05 04:00:37;;;;;;;19.63;13.15;;;5.10;91.50;;;;;;4996622;28;20105;-79
2023/03/05 04:03:03;;;;;;;19.83;13.57;;;5.00;91.50;;;;;;4992760;28;20441;-79
2023/03/05 04:05:29;;;;;;;19.65;13.93;;;5.00;91.50;;;;;;4995274;28;20033;-79
2023/03/05 04:07:57;;;;;;;20.85;15.05;;;5.10;91.50;;;;;;4992796;28;20273;-79
2023/03/05 04:10:23;;;;;;;20.95;14.98;;;5.10;91.60;;;;;;4994278;28;20101;-78
2023/03/05 04:12:49;;;;;;;24.42;15.70;;;5.10;91.50;;;;;;5007655;28;20042;-78
2023/03/05 04:15:14;;;;;;;20.38;15.43;;;5.10;91.60;;;;;;4993646;28;20033;-79
2023/03/05 04:17:40;;;;;;;21.10;15.60;;;5.10;91.50;;;;;;4992563;28;20050;-80
2023/03/05 04:20:09;;;;;;;21.63;16.02;;;5.10;91.50;;;;;;4993234;28;20037;-79
2023/03/05 04:22:35;;;;;;;24.33;16.75;;;5.10;91.60;;;;;;4994109;28;20050;-79
2023/03/05 04:25:05;;;;;;;23.73;15.40;;;5.10;91.70;;;;;;4993752;28;20030;-79
2023/03/05 04:27:32;;;;;;;21.90;16.33;;;5.10;91.70;;;;;;4993907;28;20046;-79
2023/03/05 04:29:58;;;;;;;20.98;16.52;;;5.10;91.70;;;;;;4996601;28;21479;-79
2023/03/05 04:32:28;;;;;;;22.30;16.35;;;5.10;91.70;;;;;;4991458;28;20133;-79
2023/03/05 04:34:55;;;;;;;22.50;16.92;;;5.10;91.80;;;;;;4998077;28;20474;-80
2023/03/05 04:37:21;;;;;;;21.92;17.20;;;5.10;91.80;;;;;;4993179;28;20294;-79
2023/03/05 04:39:46;;;;;;;27.35;18.55;;;5.20;91.70;;;;;;5010702;28;20026;-78
2023/03/05 04:42:12;;;;;;;21.30;14.98;;;5.10;91.70;;;;;;4996213;28;20049;-81
2023/03/05 04:44:38;;;;;;;21.38;15.25;;;5.10;91.70;;;;;;4997087;28;20038;-79
2023/03/05 04:47:04;;;;;;;22.23;15.70;;;5.10;91.70;;;;;;4997829;28;20502;-79
2023/03/05 04:49:30;;;;;;;21.70;16.52;;;5.10;91.70;;;;;;4997557;28;20356;-79
2023/03/05 04:51:56;;;;;;;23.75;17.15;;;5.10;91.70;;;;;;4996223;28;20124;-79
2023/03/05 04:54:22;;;;;;;21.73;16.70;;;5.10;91.80;;;;;;4995709;28;20061;-79
2023/03/05 04:56:48;;;;;;;21.00;16.02;;;5.10;91.80;;;;;;4998754;28;20077;-78
2023/03/05 04:59:14;;;;;;;21.60;16.45;;;5.10;91.80;;;;;;4997333;28;20569;-79
2023/03/05 05:01:40;;;;;;;24.98;16.88;;;5.10;91.90;;;;;;4995852;28;20048;-79
2023/03/05 05:04:06;;;;;;;22.45;16.55;;;5.10;91.90;;;;;;4995258;28;20065;-79
2023/03/05 05:06:32;;;;;;;21.98;15.32;;;5.10;91.90;;;;;;4996988;28;20471;-80
2023/03/05 05:08:57;;;;;;;21.15;15.80;;;5.10;91.90;;;;;;4997745;28;20056;-79
2023/03/05 05:11:23;;;;;;;20.40;15.55;;;5.00;91.90;;;;;;4995100;28;20037;-79
2023/03/05 05:13:49;;;;;;;22.30;16.10;;;5.10;92.00;;;;;;4994583;28;20046;-79
2023/03/05 05:16:15;;;;;;;19.85;15.60;;;5.00;92.00;;;;;;4994700;28;21913;-79
2023/03/05 05:18:41;;;;;;;21.85;16.63;;;5.10;92.10;;;;;;4996067;28;20030;-79
2023/03/05 05:21:11;;;;;;;23.52;17.38;;;5.10;92.00;;;;;;4993775;28;20030;-80
2023/03/05 05:23:37;;;;;;;22.50;17.48;;;5.00;92.10;;;;;;4996351;28;20612;-79
2023/03/05 05:26:05;;;;;;;24.40;17.45;;;5.00;92.10;;;;;;4995780;28;20496;-80
2023/03/05 05:28:31;;;;;;;19.88;16.40;;;5.10;92.20;;;;;;4998415;28;20117;-80
2023/03/05 05:30:57;;;;;;;22.00;16.42;;;5.10;92.20;;;;;;4999416;28;20392;-78
2023/03/05 05:33:23;;;;;;;21.45;16.45;;;5.00;92.10;;;;;;4996654;28;20064;-79
2023/03/05 05:35:49;;;;;;;23.60;17.13;;;5.10;92.10;;;;;;5002010;28;20045;-79
2023/03/05 05:38:15;;;;;;;21.50;16.67;;;5.00;92.10;;;;;;5006475;28;20026;-79
2023/03/05 05:40:41;;;;;;;19.65;15.95;;;5.00;92.10;;;;;;4998807;28;20034;-79
2023/03/05 05:43:07;;;;;;;21.05;14.38;;;5.00;92.10;;;;;;4996315;28;20065;-79
2023/03/05 05:45:36;;;;;;;20.83;14.80;;;5.00;92.10;;;;;;4997999;28;20141;-79
2023/03/05 05:48:01;;;;;;;19.15;13.80;;;5.00;91.90;;;;;;4994928;28;20046;-80
2023/03/05 05:50:27;;;;;;;14.68;11.45;;;5.00;91.90;;;;;;4999495;28;20061;-80
2023/03/05 05:52:53;;;;;;;14.68;11.38;;;5.00;91.80;;;;;;4996473;28;20125;-78
2023/03/05 05:55:18;;;;;;;14.63;10.57;;;5.00;91.80;;;;;;5000688;28;20049;-80
2023/03/05 05:57:44;;;;;;;12.23;9.38;;;4.90;91.80;;;;;;4999776;28;20034;-79
2023/03/05 06:00:12;;;;;;;11.30;8.05;;;4.90;91.80;;;;;;5004291;28;20026;-79
2023/03/05 06:02:38;;;;;;;11.10;8.02;;;4.90;91.70;;;;;;4995458;28;20030;-79
2023/03/05 06:05:06;;;;;;;13.13;8.88;;;4.80;91.80;;;;;;4999739;28;20045;-80
2023/03/05 06:07:33;;;;;;;11.27;7.70;;;4.80;91.80;;;;;;4994683;28;20061;-80
2023/03/05 06:09:59;;;;;;;10.65;6.70;;;4.80;91.70;;;;;;4994473;28;20044;-80
2023/03/05 06:12:25;;;;;;;12.07;7.07;;;4.90;91.70;;;;;;4994056;28;20837;-79
2023/03/05 06:14:50;;;;;;;10.38;6.50;;;4.90;91.70;;;;;;4992943;28;20018;-78
2023/03/05 06:17:17;;;;;;;10.60;7.28;;;4.90;91.80;;;;;;4994653;28;20465;-79
2023/03/05 06:19:42;;;;;;;10.73;6.47;;;4.90;91.70;;;;;;4994417;28;20548;-80
2023/03/05 06:22:08;;;;;;;10.32;7.15;;;4.90;91.70;;;;;;4994942;28;20251;-79
2023/03/05 06:24:34;;;;;;;10.30;7.22;;;4.90;91.60;;;;;;4994779;28;20193;-80
2023/03/05 06:26:59;;;;;;;9.90;6.55;;;4.90;91.50;;;;;;4995148;28;20041;-80
2023/03/05 06:29:25;;;;;;;9.95;6.28;;;4.90;91.50;;;;;;4992730;28;20173;-80
2023/03/05 06:31:51;;;;;;;9.27;6.03;;;4.90;91.60;;;;;;4993228;28;20115;-79
2023/03/05 06:34:16;;;;;;;9.90;6.05;;;4.90;91.60;;;;;;4994995;28;20062;-79
2023/03/05 06:36:43;;;;;;;9.07;5.97;;;4.90;91.50;;;;;;4994508;28;20443;-79
2023/03/05 06:39:08;;;;;;;9.90;5.85;;;4.90;91.50;;;;;;5000038;28;20080;-80
2023/03/05 06:41:34;;;;;;;7.90;5.10;;;4.90;91.60;;;;;;4998340;28;20034;-79
2023/03/05 06:44:03;;;;;;;8.43;5.32;;;4.90;91.60;;;;;;4995827;28;20133;-80
2023/03/05 06:46:36;;;;;;;8.98;5.70;;;5.00;91.50;;;;;;5001459;28;20037;-81
2023/03/05 06:49:02;;;;;;;8.80;5.35;;;5.00;91.50;;;;;;4991432;28;20030;-80
2023/03/05 06:51:37;;;;;;;11.40;6.03;;;5.00;91.20;;;;;;4999786;28;20069;-80
2023/03/05 06:54:07;;;;;;;11.52;6.47;;;5.00;91.10;;;;;;5005727;28;20049;-80
2023/03/05 06:56:35;;;;;;;10.75;7.45;;;5.00;91.00;;;;;;5001890;28;20389;-80
2023/03/05 06:59:01;;;;;;;8.88;5.45;;;5.00;90.90;;;;;;4993910;28;20045;-79
2023/03/05 07:01:27;;;;;;;9.27;5.60;;;5.00;90.80;;;;;;4998896;28;20038;-79
2023/03/05 07:03:54;;;;;;;7.95;4.95;;;5.00;90.80;;;;;;4998030;28;20030;-80
2023/03/05 07:06:20;;;;;;;10.80;6.05;;;5.10;90.70;;;;;;4997707;28;20065;-80
2023/03/05 07:08:46;;;;;;;11.05;6.70;;;5.10;90.70;;;;;;4996531;28;20026;-80
2023/03/05 07:11:17;;;;;;;12.15;7.82;;;5.10;90.70;;;;;;5001431;28;20040;-80
2023/03/05 07:13:46;;;;;;;12.40;8.38;;;5.10;90.70;;;;;;4995308;28;20029;-80
2023/03/05 07:16:15;;;;;;;12.23;8.23;;;5.20;90.80;;;;;;4996413;28;20034;-79
2023/03/05 07:18:41;;;;;;;13.75;10.45;;;5.20;90.80;;;;;;5001997;28;20053;-75
2023/03/05 07:21:08;;;;;;;19.27;12.85;;;5.30;90.70;;;;;;4999398;28;20089;-75
2023/03/05 07:23:35;;;;;;;17.30;12.95;;;5.30;90.70;;;;;;4999966;28;20029;-76
2023/03/05 07:26:05;;;;;;;16.63;13.30;;;5.40;90.70;;;;;;5002038;28;20516;-76
2023/03/05 07:28:31;;;;;;;19.67;14.27;;;5.40;90.50;;;;;;4993572;28;20337;-76
2023/03/05 07:31:03;;;;;;;19.63;14.20;;;5.50;90.70;;;;;;4988574;28;20030;-77
2023/03/05 07:33:28;;;;;;;18.60;14.40;;;5.60;90.60;;;;;;4999972;28;20120;-77
2023/03/05 07:35:55;;;;;;;22.05;17.30;;;5.60;90.50;;;;;;4996057;28;20132;-76
2023/03/05 07:38:21;;;;;;;27.83;20.35;;;5.70;90.50;;;;;;5001990;28;20057;-77
2023/03/05 07:40:47;;;;;;;25.33;19.02;;;5.70;90.40;;;;;;4992610;28;20025;-75
2023/03/05 07:43:13;;;;;;;24.77;19.58;;;5.70;90.40;;;;;;4997273;28;20038;-76
2023/03/05 07:45:40;;;;;;;27.48;20.75;;;5.70;90.40;;;;;;4999570;28;20135;-76
2023/03/05 07:48:06;;;;;;;23.05;18.02;;;5.80;90.40;;;;;;4995588;28;20026;-75
2023/03/05 07:50:32;;;;;;;22.85;16.90;;;5.80;90.20;;;;;;4999086;28;20508;-75
2023/03/05 07:52:58;;;;;;;20.70;16.08;;;5.80;90.00;;;;;;5003384;28;20502;-75
2023/03/05 07:55:24;;;;;;;19.73;15.63;;;5.80;89.90;;;;;;4993272;28;20054;-76
2023/03/05 07:57:50;;;;;;;18.92;13.70;;;5.80;89.80;;;;;;4989787;28;20505;-76
2023/03/05 08:00:16;;;;;;;20.67;13.75;;;5.90;89.90;;;;;;4995069;28;20088;-76
2023/03/05 08:02:42;;;;;;;18.30;13.70;;;6.00;90.00;;;;;;4997108;28;20048;-76
2023/03/05 08:05:08;;;;;;;17.05;13.43;;;6.00;89.70;;;;;;4997383;28;20034;-76
2023/03/05 08:07:34;;;;;;;16.25;12.98;;;6.00;89.60;;;;;;5002394;28;20077;-76
2023/03/05 08:09:59;;;;;;;19.42;13.77;;;6.10;89.80;;;;;;4999204;28;20394;-75
2023/03/05 08:12:25;;;;;;;17.83;13.00;;;6.10;89.40;;;;;;4995443;28;20057;-75
2023/03/05 08:14:51;;;;;;;18.02;12.40;;;6.10;89.20;;;;;;4999491;28;20358;-76
2023/03/05 08:17:17;;;;;;;18.58;12.25;;;6.10;89.10;;;;;;4996685;28;20462;-75
2023/03/05 08:19:42;;;;;;;15.77;12.05;;;6.10;89.10;;;;;;5000786;28;20028;-75
2023/03/05 08:22:08;;;;;;;15.07;10.27;;;6.20;89.00;;;;;;4997041;28;20042;-76
2023/03/05 08:24:34;;;;;;;13.38;8.68;;;6.30;89.30;;;;;;4993878;28;20378;-76
2023/03/05 08:26:59;;;;;;;10.50;7.72;;;6.30;88.70;;;;;;4996259;28;20499;-77
2023/03/05 08:29:25;;;;;;;10.75;7.13;;;6.30;88.20;;;;;;4991747;28;20037;-76
2023/03/05 08:31:52;;;;;;;12.43;6.55;;;6.30;88.00;;;;;;4994185;28;20041;-76
2023/03/05 08:34:21;;;;;;;10.27;7.30;;;6.20;87.80;;;;;;4999168;28;20112;-76
2023/03/05 08:36:47;;;;;;;10.05;6.80;;;6.30;87.40;;;;;;5001989;28;20491;-76
2023/03/05 08:39:13;;;;;;;11.23;7.38;;;6.30;87.50;;;;;;4995714;28;20036;-75
2023/03/05 08:41:39;;;;;;;10.57;6.70;;;6.30;87.40;;;;;;4998110;28;20121;-76
2023/03/05 08:44:05;;;;;;;9.57;6.50;;;6.30;87.70;;;;;;4996690;28;20073;-75
2023/03/05 08:46:30;;;;;;;10.07;6.50;;;6.20;87.30;;;;;;4999524;28;20549;-76
2023/03/05 08:48:56;;;;;;;13.35;7.18;;;6.30;87.30;;;;;;4990964;28;20031;-76
2023/03/05 08:51:24;;;;;;;13.65;8.48;;;6.40;87.20;;;;;;4993747;28;20228;-75
2023/03/05 08:53:51;;;;;;;12.00;8.02;;;6.40;86.80;;;;;;4998192;28;20459;-75
2023/03/05 08:56:17;;;;;;;12.20;6.43;;;6.40;86.90;;;;;;4994375;28;20050;-75
2023/03/05 08:58:44;;;;;;;8.88;5.13;;;6.40;86.50;;;;;;4991018;28;20912;-77
2023/03/05 09:01:11;;;;;;;9.50;5.97;;;6.20;86.00;;;;;;4991872;28;20042;-78
2023/03/05 09:03:37;;;;;;;9.18;5.72;;;6.30;86.40;;;;;;5010028;28;20206;-76
2023/03/05 09:06:07;;;;;;;8.45;4.97;;;6.40;86.60;;;;;;4995788;28;20042;-75
2023/03/05 09:08:33;;;;;;;9.13;4.30;;;6.30;86.10;;;;;;4998142;28;20032;-75
2023/03/05 09:11:02;;;;;;;7.50;4.78;;;6.10;86.20;;;;;;4992544;28;20435;-75
2023/03/05 09:13:27;;;;;;;8.05;4.68;;;6.00;86.50;;;;;;4995558;28;20033;-76
2023/03/05 09:16:02;;;;;;;8.25;4.95;;;6.00;86.50;;;;;;4995930;28;20060;-75
2023/03/05 09:18:28;;;;;;;10.63;4.85;;;5.80;86.40;;;;;;4988779;28;20399;-74
2023/03/05 09:20:54;;;;;;;9.75;5.00;;;5.90;86.50;;;;;;4986989;28;20040;-80
2023/03/05 09:23:20;;;;;;;7.18;4.40;;;5.90;86.70;;;;;;4967540;28;20035;-80
2023/03/05 09:25:46;;;;;;;8.25;4.78;;;6.10;86.80;;;;;;4973310;28;20031;-81
2023/03/05 09:28:12;;;;;;;7.20;4.25;;;6.00;86.00;;;;;;4987609;28;20673;-79
2023/03/05 09:30:37;;;;;;;6.47;4.47;;;6.10;86.10;;;;;;4991109;28;20030;-80
2023/03/05 09:33:04;;;;;;;8.38;5.07;;;6.20;86.30;;;;;;4988360;28;20026;-78
2023/03/05 09:35:33;;;;;;;7.03;3.72;;;6.20;86.00;;;;;;4988156;28;20524;-77
2023/03/05 09:37:58;;;;;;;8.00;4.18;;;6.10;85.10;;;;;;4992722;28;20026;-81
2023/03/05 09:40:27;;;;;;;7.88;3.65;;;6.10;84.70;;;;;;4996873;28;20033;-81
2023/03/05 09:42:58;;;;;;;6.43;3.20;;;6.10;85.00;;;;;;4997456;28;20477;-80
2023/03/05 09:45:44;;;;;;;6.80;3.35;;;6.30;85.20;;;;;;4995927;28;20026;-81
2023/03/05 09:48:42;;;;;;;4.60;2.58;;;6.40;84.70;;;;;;5006698;28;20046;-82
2023/03/05 09:51:14;;;;;;;6.95;3.10;;;6.30;83.90;;;;;;4997535;28;20053;-78
2023/03/05 09:53:48;;;;;;;5.13;2.72;;;6.10;84.30;;;;;;4990160;28;20088;-80
2023/03/05 09:56:19;;;;;;;5.72;2.65;;;6.10;84.60;;;;;;4995625;28;20050;-81
2023/03/05 09:58:52;;;;;;;6.50;2.20;;;6.10;85.00;;;;;;4994455;28;20058;-80
2023/03/05 10:01:27;;;;;;;5.93;2.30;;;6.10;84.90;;;;;;4995361;28;20034;-80
2023/03/05 10:03:59;;;;;;;4.25;2.30;;;6.00;85.00;;;;;;4994135;28;20597;-80
2023/03/05 10:07:09;;;;;;;4.70;2.03;;;6.00;84.80;;;;;;4995149;28;20042;-82
2023/03/05 10:09:56;;;;;;;2.95;1.67;;;6.00;84.40;;;;;;5005579;28;20042;-81
2023/03/05 10:12:41;;;;;;;3.90;2.30;;;5.80;84.20;;;;;;4997425;28;20406;-82
2023/03/05 10:15:14;;;;;;;4.32;2.13;;;5.80;83.30;;;;;;4995717;28;20034;-81
2023/03/05 10:17:49;;;;;;;2.53;1.63;;;5.90;83.80;;;;;;5003267;28;20487;-79
2023/03/05 10:20:25;;;;;;;4.15;2.13;;;5.90;83.50;;;;;;4999632;28;20030;-81
2023/03/05 10:22:53;;;;;;;3.20;1.95;;;5.90;82.70;;;;;;5013379;28;20129;-80
2023/03/05 10:25:33;;;;;;;3.83;1.80;;;5.80;82.60;;;;;;5000906;28;20042;-81
2023/03/05 10:28:28;;;;;;;4.63;2.25;;;6.00;83.00;;;;;;4997908;28;20550;-82
2023/03/05 10:30:56;;;;;;;5.13;2.33;;;6.20;83.40;;;;;;4995800;28;20040;-82
2023/03/05 10:33:41;;;;;;;3.45;1.90;;;6.40;83.10;;;;;;4998011;28;20376;-82
2023/03/05 10:36:23;;;;;;;;;;;6.50;83.50;;;;;;4994744;28;20108;-77
2023/03/05 10:38:58;;;;;;;5.43;1.63;;;6.70;83.10;;;;;;4996814;28;19909;-79
2023/03/05 10:41:24;;;;;;;3.90;2.17;;;6.80;82.00;;;;;;4999533;28;20454;-76
2023/03/05 10:43:54;;;;;;;3.55;1.90;;;6.90;81.90;;;;;;4996418;28;20399;-78
2023/03/05 10:46:30;;;;;;;4.35;1.73;;;6.80;81.40;;;;;;4992918;28;20048;-78
2023/03/05 10:49:23;;;;;;;3.65;1.65;;;6.80;80.60;;;;;;4987727;28;20124;-76
2023/03/05 10:52:35;;;;;;;4.00;1.60;;;6.40;79.40;;;;;;5017067;28;20434;-77
2023/03/05 10:55:02;;;;;;;3.28;1.60;;;6.30;80.60;;;;;;4994026;28;20036;-78
2023/03/05 10:57:30;;;;;;;3.97;1.65;;;6.20;80.70;;;;;;4999163;28;20053;-78
2023/03/05 11:00:05;;;;;;;3.53;1.50;;;6.20;81.20;;;;;;4998941;28;20450;-79
2023/03/05 11:02:32;;;;;;;3.72;2.00;;;6.30;81.20;;;;;;4998286;28;20647;-78
2023/03/05 11:04:58;;;;;;;2.95;1.48;;;6.20;81.10;;;;;;4999429;28;20145;-78
2023/03/05 11:07:23;;;;;;;3.75;1.60;;;6.40;81.10;;;;;;5002065;28;20576;-78
2023/03/05 11:10:14;;;;;;;3.92;1.83;;;6.40;80.10;;;;;;4997114;28;20029;-77
2023/03/05 11:12:40;;;;;;;6.22;2.15;;;6.50;80.40;;;;;;4996656;28;20049;-77
2023/03/05 11:15:06;;;;;;;3.60;1.58;;;6.50;80.60;;;;;;4998540;28;20026;-78
2023/03/05 11:17:57;;;;;;;5.93;2.10;;;6.60;80.60;;;;;;4990998;28;20514;-77
2023/03/05 11:20:26;;;;;;;4.75;1.85;;;6.70;79.40;;;;;;4992178;28;20073;-78
2023/03/05 11:23:03;;;;;;;6.63;2.00;;;6.80;79.30;;;;;;4989081;28;20534;-78
2023/03/05 11:25:29;;;;;;;4.78;1.65;;;6.90;79.90;;;;;;4995595;28;20034;-78
2023/03/05 11:27:56;;;;;;;6.03;1.80;;;7.00;79.40;;;;;;4999004;28;20079;-77
2023/03/05 11:30:35;;;;;;;6.95;2.67;;;7.00;78.90;;;;;;4996741;28;20374;-78
2023/03/05 11:33:21;;;;;;;6.75;2.60;;;7.10;79.20;;;;;;4985177;28;20398;-76
2023/03/05 11:35:49;;;;;;;5.00;2.05;;;7.10;78.40;;;;;;4992990;28;20025;-76
2023/03/05 11:38:20;;;;;;;5.93;2.22;;;7.10;78.60;;;;;;4994926;28;20026;-77
2023/03/05 11:40:48;;;;;;;7.45;2.40;;;7.20;79.10;;;;;;4994804;28;20030;-76
2023/03/05 11:43:19;;;;;;;10.18;3.60;;;7.30;79.10;;;;;;4993874;28;20030;-76
2023/03/05 11:45:49;;;;;;;8.73;3.53;;;7.30;79.20;;;;;;4990388;28;20026;-77
2023/03/05 11:48:27;;;;;;;7.90;3.00;;;7.10;78.80;;;;;;4999876;28;20026;-78
2023/03/05 11:50:57;;;;;;;6.43;3.22;;;7.20;80.20;;;;;;5001463;28;20033;-78
2023/03/05 11:53:34;;;;;;;7.78;2.75;;;7.30;79.90;;;;;;5000196;28;20130;-77
2023/03/05 11:56:23;;;;;;;6.43;3.10;;;7.20;80.10;;;;;;4991712;28;20038;-77
2023/03/05 11:59:14;;;;;;;7.05;3.50;;;6.90;80.00;;;;;;5002770;28;20030;-77
2023/03/05 12:01:48;;;;;;;9.32;3.50;;;6.80;80.80;;;;;;4997362;28;20101;-78
2023/03/05 12:04:15;;;;;;;7.85;2.90;;;6.90;81.10;;;;;;4985628;28;20041;-78
2023/03/05 12:07:03;;;;;;;9.27;3.35;;;6.90;80.70;;;;;;4999068;28;20038;-77
2023/03/05 12:09:50;;;;;;;6.85;3.70;;;6.90;80.60;;;;;;5000112;28;20056;-77
2023/03/05 12:12:34;;;;;;;5.95;2.53;;;7.00;80.70;;;;;;4998227;28;20046;-77
2023/03/05 12:15:36;;;;;;;6.03;2.85;;;7.00;80.10;;;;;;4995413;28;20359;-77
2023/03/05 12:18:20;;;;;;;8.00;3.22;;;7.10;80.40;;;;;;4993242;28;20030;-78
2023/03/05 12:21:05;;;;;;;6.47;2.72;;;7.10;80.40;;;;;;4996619;28;20030;-78
2023/03/05 12:23:48;;;;;;;4.07;2.33;;;7.10;79.60;;;;;;4993823;28;20033;-78
2023/03/05 12:26:14;;;;;;;6.40;2.47;;;7.10;78.80;;;;;;4998418;28;20046;-78
2023/03/05 12:28:40;;;;;;;6.45;2.67;;;7.10;78.40;;;;;;5000051;28;20039;-76
2023/03/05 12:31:34;;;;;;;7.95;3.85;;;7.10;79.00;;;;;;4991452;28;20088;-77
2023/03/05 12:34:38;;;;;;;5.47;3.00;;;7.20;78.80;;;;;;5000195;28;20487;-78
2023/03/05 12:37:12;;;;;;;6.82;2.90;;;7.40;79.00;;;;;;4992096;28;20189;-77
2023/03/05 12:39:44;;;;;;;6.95;2.95;;;7.50;78.60;;;;;;5004664;28;20033;-77
2023/03/05 12:42:28;;;;;;;5.13;2.80;;;7.60;77.60;;;;;;4993296;28;20129;-77
2023/03/05 12:45:10;;;;;;;5.37;2.33;;;7.50;76.00;;;;;;4992131;28;20450;-78
2023/03/05 12:47:40;;;;;;;7.13;2.72;;;7.50;75.20;;;;;;4998946;28;20054;-77
2023/03/05 12:50:26;;;;;;;7.72;2.63;;;7.60;74.80;;;;;;4995805;28;20061;-78
2023/03/05 12:53:13;;;;;;;5.22;2.40;;;7.70;74.30;;;;;;4994272;28;20065;-77
2023/03/05 12:55:59;;;;;;;5.75;2.20;;;7.90;74.10;;;;;;4998410;28;20054;-77
2023/03/05 12:58:40;;;;;;;3.53;2.05;;;7.70;72.10;;;;;;4999345;28;20152;-78